Time;durP1;ratioP1;P1;durP2;ratioP2;P2;SDS_P1;SDS_P2;PMS_P1;PMS_P2;Temp;Humidity;BMP_temperature;BMP_pressure;BME280_temperature;BME280_humidity;BME280_pressure;Samples;Min_cycle;Max_cycle;Signal;HPM_P1;HPM_P2
2023/04/22 00:01:16;;;;;;;4.13;2.67;;;12.40;99.90;;;;;;4993704;28;20364;-75
2023/04/22 00:03:43;;;;;;;7.07;2.75;;;12.50;99.90;;;;;;5010374;28;20033;-75
2023/04/22 00:06:09;;;;;;;5.53;2.50;;;12.40;99.90;;;;;;4994714;28;20026;-75
2023/04/22 00:08:35;;;;;;;3.20;2.45;;;12.40;99.90;;;;;;4994160;28;20085;-75
2023/04/22 00:11:01;;;;;;;3.58;2.67;;;12.40;99.90;;;;;;4993622;28;20026;-78
2023/04/22 00:13:27;;;;;;;2.60;2.30;;;12.40;99.90;;;;;;4993969;28;20030;-75
2023/04/22 00:15:53;;;;;;;4.05;2.50;;;12.40;99.90;;;;;;4993852;28;20121;-75
2023/04/22 00:18:18;;;;;;;5.45;2.90;;;12.30;99.90;;;;;;4994766;28;20054;-75
2023/04/22 00:20:44;;;;;;;4.57;2.55;;;12.30;99.90;;;;;;4993795;28;20063;-75
2023/04/22 00:23:11;;;;;;;4.10;2.47;;;12.30;99.90;;;;;;4994475;28;20026;-75
2023/04/22 00:25:38;;;;;;;6.97;3.03;;;12.30;99.90;;;;;;4995212;28;20371;-75
2023/04/22 00:28:04;;;;;;;6.55;2.88;;;12.20;99.90;;;;;;5009502;28;20034;-75
2023/04/22 00:30:30;;;;;;;4.00;2.60;;;12.20;99.90;;;;;;4994881;28;20054;-75
2023/04/22 00:32:55;;;;;;;3.80;2.72;;;12.20;99.90;;;;;;4994501;28;20065;-75
2023/04/22 00:35:21;;;;;;;3.97;2.60;;;12.20;99.90;;;;;;4992971;28;20065;-75
2023/04/22 00:37:47;;;;;;;5.00;3.15;;;12.20;99.90;;;;;;4993542;28;20114;-74
2023/04/22 00:40:12;;;;;;;5.85;2.85;;;12.20;99.90;;;;;;4993912;28;20026;-78
2023/04/22 00:42:39;;;;;;;4.88;3.30;;;12.10;99.90;;;;;;5009633;28;20034;-75
2023/04/22 00:45:10;;;;;;;4.93;3.25;;;12.10;99.90;;;;;;4992923;28;20026;-74
2023/04/22 00:47:35;;;;;;;3.92;2.60;;;12.10;99.90;;;;;;4992374;28;20140;-75
2023/04/22 00:50:02;;;;;;;3.80;3.08;;;12.10;99.90;;;;;;4994708;28;20165;-75
2023/04/22 00:52:28;;;;;;;6.15;3.28;;;12.00;99.90;;;;;;4993554;28;20502;-75
2023/04/22 00:54:53;;;;;;;5.97;2.90;;;12.00;99.90;;;;;;4994503;28;20069;-74
2023/04/22 00:57:19;;;;;;;3.17;2.40;;;12.00;99.90;;;;;;5009008;28;20035;-75
2023/04/22 00:59:45;;;;;;;5.55;3.05;;;11.90;99.90;;;;;;4993124;28;20038;-75
2023/04/22 01:02:14;;;;;;;4.30;2.92;;;11.90;99.90;;;;;;5009034;28;20031;-75
2023/04/22 01:04:40;;;;;;;5.85;2.78;;;11.90;99.90;;;;;;5009536;28;20062;-75
2023/04/22 01:07:06;;;;;;;4.63;2.97;;;12.00;99.90;;;;;;4992377;28;20494;-75
2023/04/22 01:09:31;;;;;;;4.55;3.17;;;12.00;99.90;;;;;;5009359;28;20031;-75
2023/04/22 01:11:57;;;;;;;6.03;3.08;;;12.00;99.90;;;;;;4994121;28;20042;-75
2023/04/22 01:14:23;;;;;;;3.45;2.58;;;11.90;99.90;;;;;;4993382;28;20058;-75
2023/04/22 01:16:50;;;;;;;3.65;2.70;;;11.90;99.90;;;;;;4994035;28;20037;-75
2023/04/22 01:19:16;;;;;;;5.47;2.53;;;11.90;99.90;;;;;;5008703;28;20033;-75
2023/04/22 01:21:43;;;;;;;4.35;2.40;;;11.90;99.90;;;;;;5009200;28;20117;-75
2023/04/22 01:24:09;;;;;;;4.20;2.47;;;11.80;99.90;;;;;;4992070;28;20081;-75
2023/04/22 01:26:36;;;;;;;3.92;2.72;;;11.80;99.90;;;;;;4993809;28;20038;-75
2023/04/22 01:29:03;;;;;;;2.97;2.35;;;11.80;99.90;;;;;;4993808;28;20061;-75
2023/04/22 01:31:30;;;;;;;6.40;2.70;;;11.80;99.90;;;;;;4993300;28;20080;-75
2023/04/22 01:33:57;;;;;;;4.65;2.85;;;11.90;99.90;;;;;;4992698;28;20030;-75
2023/04/22 01:36:23;;;;;;;3.80;2.55;;;11.90;99.90;;;;;;4993083;28;20034;-75
2023/04/22 01:38:48;;;;;;;6.18;3.00;;;11.90;99.90;;;;;;4992682;28;20033;-75
2023/04/22 01:41:14;;;;;;;4.75;2.47;;;11.80;99.90;;;;;;4992918;28;20090;-75
2023/04/22 01:43:41;;;;;;;6.10;2.63;;;11.80;99.90;;;;;;4992335;28;20565;-75
2023/04/22 01:46:08;;;;;;;4.68;2.78;;;11.80;99.90;;;;;;4992681;28;20038;-75
2023/04/22 01:48:34;;;;;;;4.38;2.53;;;11.80;99.90;;;;;;4992456;28;20027;-75
2023/04/22 01:51:00;;;;;;;2.88;2.35;;;11.80;99.90;;;;;;4993490;28;20037;-75
2023/04/22 01:53:26;;;;;;;4.22;2.63;;;11.80;99.90;;;;;;4992694;28;20101;-75
2023/04/22 01:55:52;;;;;;;4.10;2.40;;;11.70;99.90;;;;;;5008831;28;20145;-75
2023/04/22 01:58:18;;;;;;;3.47;2.63;;;11.70;99.90;;;;;;4992782;28;20026;-75
2023/04/22 02:00:44;;;;;;;4.65;2.67;;;11.60;99.90;;;;;;4992325;28;20030;-75
2023/04/22 02:03:09;;;;;;;4.78;2.60;;;11.70;99.90;;;;;;4991542;28;20022;-75
2023/04/22 02:05:36;;;;;;;3.28;2.30;;;11.60;99.90;;;;;;4993416;28;20387;-75
2023/04/22 02:08:02;;;;;;;4.60;2.60;;;11.50;99.90;;;;;;4992012;28;20472;-75
2023/04/22 02:10:28;;;;;;;3.97;2.58;;;11.50;99.90;;;;;;5007873;28;20198;-75
2023/04/22 02:12:53;;;;;;;7.30;2.45;;;11.50;99.90;;;;;;4993451;28;20042;-75
2023/04/22 02:15:19;;;;;;;3.92;2.60;;;11.40;99.90;;;;;;4991370;28;20026;-75
2023/04/22 02:17:45;;;;;;;3.50;2.60;;;11.40;99.90;;;;;;4993319;28;20034;-75
2023/04/22 02:20:11;;;;;;;3.08;2.50;;;11.30;99.90;;;;;;4991443;28;20153;-75
2023/04/22 02:22:37;;;;;;;4.22;2.30;;;11.30;99.90;;;;;;4992007;28;20388;-75
2023/04/22 02:25:04;;;;;;;8.00;3.53;;;11.40;99.90;;;;;;5008376;28;20038;-75
2023/04/22 02:27:30;;;;;;;6.40;3.60;;;11.40;99.90;;;;;;4992669;28;20035;-75
2023/04/22 02:29:55;;;;;;;6.05;3.05;;;11.40;99.90;;;;;;5008422;28;20032;-76
2023/04/22 02:32:21;;;;;;;3.40;2.38;;;11.30;99.90;;;;;;5007837;28;20383;-75
2023/04/22 02:34:47;;;;;;;3.47;2.47;;;11.30;99.90;;;;;;4993197;28;20030;-75
2023/04/22 02:37:13;;;;;;;3.78;2.70;;;11.20;99.90;;;;;;4992572;28;20044;-76
2023/04/22 02:39:38;;;;;;;4.25;2.67;;;11.20;99.90;;;;;;4993262;28;20439;-75
2023/04/22 02:42:04;;;;;;;4.72;2.90;;;11.10;99.90;;;;;;4991783;28;20121;-75
2023/04/22 02:44:30;;;;;;;3.47;2.40;;;11.10;99.90;;;;;;5007821;28;20138;-75
2023/04/22 02:46:55;;;;;;;5.05;2.58;;;11.10;99.90;;;;;;4992616;28;20050;-75
2023/04/22 02:49:21;;;;;;;5.93;2.60;;;11.10;99.90;;;;;;5007442;28;20026;-75
2023/04/22 02:51:46;;;;;;;6.13;3.13;;;11.10;99.90;;;;;;4992684;28;20157;-75
2023/04/22 02:54:12;;;;;;;5.97;3.22;;;11.00;99.90;;;;;;4992306;28;20072;-75
2023/04/22 02:56:38;;;;;;;4.70;2.47;;;11.00;99.90;;;;;;4992857;28;20030;-75
2023/04/22 02:59:03;;;;;;;5.07;2.90;;;11.00;99.90;;;;;;5008064;28;20508;-75
2023/04/22 03:01:29;;;;;;;5.63;3.47;;;11.00;99.90;;;;;;4991873;28;20027;-75
2023/04/22 03:03:55;;;;;;;3.35;2.83;;;11.00;99.90;;;;;;4992819;28;20033;-75
2023/04/22 03:06:21;;;;;;;4.15;3.00;;;10.90;99.90;;;;;;4990885;28;20384;-75
2023/04/22 03:08:46;;;;;;;6.03;2.88;;;10.90;99.90;;;;;;4991497;28;20482;-75
2023/04/22 03:11:12;;;;;;;4.75;2.97;;;10.90;99.90;;;;;;4993057;28;20038;-75
2023/04/22 03:13:38;;;;;;;4.68;2.90;;;10.80;99.90;;;;;;4996303;28;20027;-75
2023/04/22 03:16:04;;;;;;;5.70;3.03;;;10.90;99.90;;;;;;4994751;28;20446;-75
2023/04/22 03:18:29;;;;;;;5.40;3.13;;;10.80;99.90;;;;;;4994512;28;20058;-75
2023/04/22 03:20:55;;;;;;;6.03;2.58;;;10.70;99.90;;;;;;5010996;28;20144;-75
2023/04/22 03:23:21;;;;;;;4.18;2.85;;;10.70;99.90;;;;;;5010662;28;20154;-75
2023/04/22 03:25:46;;;;;;;4.40;2.53;;;10.70;99.90;;;;;;5011337;28;20030;-75
2023/04/22 03:28:12;;;;;;;5.75;3.17;;;10.60;99.90;;;;;;4995985;28;20046;-75
2023/04/22 03:30:38;;;;;;;4.15;2.80;;;10.60;99.90;;;;;;5011040;28;20061;-75
2023/04/22 03:33:04;;;;;;;6.38;2.80;;;10.60;99.90;;;;;;5011122;28;20062;-75
2023/04/22 03:35:30;;;;;;;2.90;2.30;;;10.60;99.90;;;;;;4995371;28;20033;-75
2023/04/22 03:37:55;;;;;;;3.65;2.58;;;10.50;99.90;;;;;;4996151;28;20034;-75
2023/04/22 03:40:21;;;;;;;4.20;2.53;;;10.50;99.90;;;;;;4990384;28;20038;-75
2023/04/22 03:42:46;;;;;;;5.00;2.83;;;10.50;99.90;;;;;;4993084;28;20471;-75
2023/04/22 03:45:12;;;;;;;4.65;2.67;;;10.40;99.90;;;;;;4995780;28;20109;-75
2023/04/22 03:47:37;;;;;;;5.65;2.65;;;10.40;99.90;;;;;;4994104;28;20411;-75
2023/04/22 03:50:03;;;;;;;4.80;2.65;;;10.30;99.90;;;;;;4993956;28;20026;-75
2023/04/22 03:52:29;;;;;;;4.45;2.70;;;10.30;99.90;;;;;;4993352;28;20026;-75
2023/04/22 03:54:55;;;;;;;4.53;2.50;;;10.20;99.90;;;;;;4995168;28;20122;-75
2023/04/22 03:57:21;;;;;;;4.30;2.72;;;10.20;99.90;;;;;;4991147;28;20066;-75
2023/04/22 03:59:47;;;;;;;3.75;2.33;;;10.20;99.90;;;;;;4995032;28;20026;-76
2023/04/22 04:02:12;;;;;;;3.83;2.42;;;10.20;99.90;;;;;;4993797;28;20458;-75
2023/04/22 04:04:38;;;;;;;5.78;2.80;;;10.10;99.90;;;;;;4994634;28;20034;-75
2023/04/22 04:07:03;;;;;;;4.07;2.33;;;10.10;99.90;;;;;;4993369;28;20038;-75
2023/04/22 04:09:29;;;;;;;3.13;2.55;;;10.10;99.90;;;;;;4993292;28;20064;-75
2023/04/22 04:11:55;;;;;;;4.97;2.65;;;10.10;99.90;;;;;;4994487;28;20030;-75
2023/04/22 04:14:21;;;;;;;3.17;2.38;;;10.00;99.90;;;;;;4994254;28;20065;-75
2023/04/22 04:16:46;;;;;;;3.97;2.40;;;10.00;99.90;;;;;;4993340;28;20038;-75
2023/04/22 04:19:12;;;;;;;2.88;2.35;;;10.00;99.90;;;;;;4993568;28;20085;-75
2023/04/22 04:21:38;;;;;;;6.78;2.63;;;10.00;99.90;;;;;;4993897;28;20587;-75
2023/04/22 04:24:04;;;;;;;6.30;2.47;;;10.00;99.90;;;;;;4992789;28;20034;-75
2023/04/22 04:26:31;;;;;;;3.95;2.55;;;10.00;99.90;;;;;;4992674;28;20538;-75
2023/04/22 04:28:56;;;;;;;4.35;2.33;;;10.00;99.90;;;;;;4993101;28;20416;-75
2023/04/22 04:31:23;;;;;;;3.40;2.30;;;10.00;99.90;;;;;;4992631;28;20065;-75
2023/04/22 04:33:49;;;;;;;3.47;2.30;;;10.00;99.90;;;;;;4994583;28;20022;-75
2023/04/22 04:36:15;;;;;;;3.50;2.28;;;10.00;99.90;;;;;;4992444;28;20038;-74
2023/04/22 04:38:40;;;;;;;3.13;2.50;;;10.00;99.90;;;;;;4992633;28;20057;-75
2023/04/22 04:41:09;;;;;;;2.80;2.00;;;10.00;99.90;;;;;;4991234;28;20030;-75
2023/04/22 04:43:35;;;;;;;4.45;2.33;;;10.00;99.90;;;;;;4992364;28;20026;-75
2023/04/22 04:46:00;;;;;;;3.50;2.38;;;10.00;99.90;;;;;;4993762;28;20483;-75
2023/04/22 04:48:26;;;;;;;4.18;2.88;;;10.00;99.90;;;;;;4973488;28;20030;-75
2023/04/22 04:50:52;;;;;;;3.50;2.40;;;9.90;99.90;;;;;;4993194;28;20058;-75
2023/04/22 04:53:20;;;;;;;4.32;2.42;;;9.90;99.90;;;;;;4992377;28;20423;-75
2023/04/22 04:55:46;;;;;;;5.25;2.50;;;9.90;99.90;;;;;;4992375;28;20026;-75
2023/04/22 04:58:11;;;;;;;3.42;2.55;;;9.90;99.90;;;;;;4993706;28;20035;-75
2023/04/22 05:00:37;;;;;;;4.05;2.95;;;9.80;99.90;;;;;;4993313;28;20023;-75
2023/04/22 05:03:02;;;;;;;5.72;2.97;;;9.90;99.90;;;;;;4992676;28;20100;-75
2023/04/22 05:05:29;;;;;;;5.47;2.72;;;9.90;99.90;;;;;;4993136;28;20053;-75
2023/04/22 05:07:54;;;;;;;5.80;2.80;;;9.80;99.90;;;;;;4993181;28;20038;-75
2023/04/22 05:10:20;;;;;;;3.97;2.33;;;9.80;99.90;;;;;;4991886;28;20451;-75
2023/04/22 05:12:46;;;;;;;3.95;2.60;;;9.80;99.90;;;;;;5002180;28;20029;-75
2023/04/22 05:15:13;;;;;;;4.93;2.50;;;9.80;99.90;;;;;;4993801;28;20463;-75
2023/04/22 05:17:39;;;;;;;3.60;2.60;;;9.80;99.90;;;;;;4991560;28;20434;-75
2023/04/22 05:20:05;;;;;;;4.32;2.65;;;9.80;99.90;;;;;;4993548;28;20027;-75
2023/04/22 05:22:30;;;;;;;3.45;2.63;;;9.70;99.90;;;;;;4992904;28;20022;-75
2023/04/22 05:24:56;;;;;;;3.80;2.92;;;9.70;99.90;;;;;;4992206;28;20035;-75
2023/04/22 05:27:22;;;;;;;5.72;3.00;;;9.70;99.90;;;;;;4992854;28;20030;-75
2023/04/22 05:29:47;;;;;;;4.10;2.80;;;9.70;99.90;;;;;;4991944;28;20022;-75
2023/04/22 05:32:13;;;;;;;3.78;2.75;;;9.70;99.90;;;;;;4992287;28;20105;-75
2023/04/22 05:34:38;;;;;;;3.25;2.70;;;9.70;99.90;;;;;;4991347;28;20431;-75
2023/04/22 05:37:04;;;;;;;5.18;2.63;;;9.80;99.90;;;;;;4992284;28;20057;-75
2023/04/22 05:39:30;;;;;;;3.75;2.50;;;9.80;99.90;;;;;;4991155;28;20073;-75
2023/04/22 05:41:56;;;;;;;4.30;2.53;;;9.80;99.90;;;;;;4991750;28;20034;-75
2023/04/22 05:44:21;;;;;;;5.80;2.65;;;9.90;99.90;;;;;;4992575;28;20073;-75
2023/04/22 05:46:47;;;;;;;6.40;2.90;;;10.00;99.90;;;;;;4990254;28;20054;-76
2023/04/22 05:49:12;;;;;;;5.20;3.00;;;10.00;99.90;;;;;;4992960;28;20452;-75
2023/04/22 05:51:38;;;;;;;9.88;3.30;;;10.10;99.90;;;;;;4991354;28;20460;-75
2023/04/22 05:54:04;;;;;;;6.80;3.22;;;10.20;99.90;;;;;;4991830;28;20035;-75
2023/04/22 05:56:29;;;;;;;4.03;3.10;;;10.20;99.90;;;;;;4991204;28;20137;-75
2023/04/22 05:58:55;;;;;;;5.95;3.60;;;10.30;99.90;;;;;;4992782;28;20525;-75
2023/04/22 06:01:21;;;;;;;4.07;3.03;;;10.40;99.90;;;;;;4992412;28;20030;-74
2023/04/22 06:03:46;;;;;;;5.97;3.40;;;10.40;99.90;;;;;;4991680;28;20484;-74
2023/04/22 06:06:12;;;;;;;5.07;3.20;;;10.50;99.90;;;;;;4991628;28;20030;-75
2023/04/22 06:08:37;;;;;;;5.97;3.53;;;10.50;99.90;;;;;;4992098;28;20030;-74
2023/04/22 06:11:03;;;;;;;4.60;3.55;;;10.60;99.90;;;;;;4983443;28;20465;-75
2023/04/22 06:13:29;;;;;;;5.50;3.45;;;10.70;99.90;;;;;;4989484;28;20026;-74
2023/04/22 06:15:54;;;;;;;6.65;3.40;;;10.80;99.90;;;;;;4991650;28;20530;-75
2023/04/22 06:18:20;;;;;;;6.00;4.03;;;10.80;99.90;;;;;;4991168;28;20030;-75
2023/04/22 06:20:46;;;;;;;5.57;3.63;;;10.90;99.90;;;;;;4991233;28;20127;-75
2023/04/22 06:23:11;;;;;;;5.65;3.63;;;11.00;99.90;;;;;;4992923;28;20460;-75
2023/04/22 06:25:37;;;;;;;8.63;4.00;;;11.10;99.90;;;;;;4991665;28;20050;-75
2023/04/22 06:28:03;;;;;;;6.28;3.88;;;11.20;99.90;;;;;;4991523;28;20038;-75
2023/04/22 06:30:28;;;;;;;5.22;3.67;;;11.20;99.90;;;;;;4990389;28;20035;-75
2023/04/22 06:32:54;;;;;;;4.55;3.35;;;11.30;99.90;;;;;;4991625;28;20464;-75
2023/04/22 06:35:20;;;;;;;4.50;3.33;;;11.40;99.90;;;;;;4992103;28;20026;-74
2023/04/22 06:37:49;;;;;;;6.43;3.60;;;11.50;99.90;;;;;;4992773;28;20030;-75
2023/04/22 06:40:15;;;;;;;6.65;3.90;;;11.50;99.90;;;;;;4989398;28;20124;-75
2023/04/22 06:42:40;;;;;;;7.82;4.32;;;11.60;99.90;;;;;;4984088;28;20065;-75
2023/04/22 06:45:11;;;;;;;6.95;4.22;;;11.60;99.90;;;;;;4992668;28;20373;-75
2023/04/22 06:47:38;;;;;;;9.48;3.97;;;11.70;99.90;;;;;;4993743;28;20050;-75
2023/04/22 06:50:06;;;;;;;7.63;4.45;;;11.70;99.90;;;;;;4996281;28;20030;-75
2023/04/22 06:52:31;;;;;;;6.28;4.05;;;11.80;99.90;;;;;;4995900;28;20029;-75
2023/04/22 06:54:57;;;;;;;5.38;4.05;;;11.80;99.90;;;;;;4996299;28;20125;-75
2023/04/22 06:57:23;;;;;;;6.47;3.80;;;11.80;99.90;;;;;;4995903;28;20109;-75
2023/04/22 06:59:48;;;;;;;7.25;4.38;;;11.90;99.90;;;;;;4996051;28;20372;-75
2023/04/22 07:02:14;;;;;;;6.40;4.00;;;11.90;99.90;;;;;;4996308;28;20031;-75
2023/04/22 07:04:39;;;;;;;7.85;4.00;;;11.90;99.90;;;;;;4994170;28;20045;-75
2023/04/22 07:07:05;;;;;;;7.68;4.07;;;11.90;99.90;;;;;;4994913;28;20042;-75
2023/04/22 07:09:31;;;;;;;5.47;3.63;;;11.90;99.90;;;;;;4993972;28;20125;-76
2023/04/22 07:11:57;;;;;;;7.68;4.35;;;11.90;99.90;;;;;;4994820;28;20028;-76
2023/04/22 07:14:25;;;;;;;6.50;3.88;;;12.00;99.90;;;;;;4995390;28;20033;-75
2023/04/22 07:16:51;;;;;;;6.57;4.28;;;12.00;99.90;;;;;;4995914;28;20118;-75
2023/04/22 07:19:16;;;;;;;5.22;3.88;;;12.10;99.90;;;;;;4994525;28;20113;-76
2023/04/22 07:21:42;;;;;;;5.78;4.15;;;12.10;99.90;;;;;;4993982;28;20022;-75
2023/04/22 07:24:10;;;;;;;7.15;4.68;;;12.20;99.90;;;;;;4994580;28;20027;-75
2023/04/22 07:26:37;;;;;;;7.70;5.45;;;12.20;99.90;;;;;;4993831;28;20030;-75
2023/04/22 07:29:02;;;;;;;6.10;4.47;;;12.30;99.90;;;;;;4994468;28;20488;-75
2023/04/22 07:31:28;;;;;;;5.20;3.40;;;12.40;99.90;;;;;;4993671;28;20034;-75
2023/04/22 07:33:54;;;;;;;4.60;3.60;;;12.50;99.90;;;;;;4994588;28;20026;-75
2023/04/22 07:36:19;;;;;;;3.90;3.25;;;12.60;99.90;;;;;;4994931;28;20054;-76
2023/04/22 07:38:45;;;;;;;4.03;2.90;;;12.60;99.90;;;;;;4994072;28;20112;-75
2023/04/22 07:41:10;;;;;;;7.50;3.50;;;12.70;99.90;;;;;;4993809;28;20027;-75
2023/04/22 07:43:36;;;;;;;6.10;3.05;;;12.80;99.90;;;;;;4993543;28;20026;-75
2023/04/22 07:46:02;;;;;;;4.57;2.92;;;12.80;99.90;;;;;;4993812;28;20514;-75
2023/04/22 07:48:27;;;;;;;5.20;3.00;;;12.90;99.90;;;;;;4994791;28;20034;-75
2023/04/22 07:50:53;;;;;;;3.65;2.50;;;13.00;99.90;;;;;;4994752;28;20407;-75
2023/04/22 07:53:19;;;;;;;4.45;2.72;;;13.00;99.90;;;;;;4994020;28;20116;-76
2023/04/22 07:55:45;;;;;;;4.40;2.72;;;13.10;99.90;;;;;;4995137;28;20025;-75
2023/04/22 07:58:10;;;;;;;3.40;2.63;;;13.20;99.90;;;;;;4994005;28;20031;-75
2023/04/22 08:00:36;;;;;;;4.20;2.42;;;13.30;99.90;;;;;;4993025;28;20026;-76
2023/04/22 08:03:02;;;;;;;7.28;2.85;;;13.30;99.90;;;;;;4993866;28;20125;-75
2023/04/22 08:05:28;;;;;;;4.68;2.83;;;13.40;99.90;;;;;;4993270;28;20053;-75
2023/04/22 08:07:53;;;;;;;5.55;2.78;;;13.40;99.90;;;;;;4994542;28;20030;-75
2023/04/22 08:10:19;;;;;;;5.18;3.00;;;13.40;99.90;;;;;;4994551;28;20478;-75
2023/04/22 08:12:45;;;;;;;3.60;2.55;;;13.50;99.90;;;;;;4981665;28;20031;-75
2023/04/22 08:15:11;;;;;;;3.38;2.58;;;13.50;99.90;;;;;;4993008;28;20404;-76
2023/04/22 08:17:37;;;;;;;4.45;2.22;;;13.50;99.90;;;;;;4993989;28;20058;-76
2023/04/22 08:20:04;;;;;;;3.00;2.00;;;13.70;99.90;;;;;;4993551;28;20054;-75
2023/04/22 08:22:30;;;;;;;4.22;2.80;;;13.70;99.90;;;;;;4992739;28;20571;-75
2023/04/22 08:24:56;;;;;;;2.65;2.15;;;13.80;99.90;;;;;;4994671;28;20022;-75
2023/04/22 08:27:22;;;;;;;3.85;2.10;;;13.90;99.90;;;;;;4994503;28;20416;-75
2023/04/22 08:29:47;;;;;;;2.72;2.13;;;14.10;99.90;;;;;;4994698;28;20030;-75
2023/04/22 08:32:13;;;;;;;3.42;2.30;;;14.20;99.90;;;;;;4993333;28;20023;-75
2023/04/22 08:34:38;;;;;;;3.55;2.35;;;14.10;99.90;;;;;;4993738;28;20684;-75
2023/04/22 08:37:04;;;;;;;3.33;2.00;;;14.20;99.90;;;;;;4994813;28;20072;-75
2023/04/22 08:39:30;;;;;;;4.35;2.65;;;14.10;99.90;;;;;;4992127;28;20165;-75
2023/04/22 08:41:57;;;;;;;3.83;2.03;;;14.20;99.90;;;;;;4994069;28;20042;-75
2023/04/22 08:44:23;;;;;;;2.70;2.17;;;14.30;99.90;;;;;;4992388;28;20118;-74
2023/04/22 08:46:49;;;;;;;3.40;2.20;;;14.30;99.90;;;;;;4994125;28;20173;-74
2023/04/22 08:49:15;;;;;;;2.70;1.92;;;14.40;99.90;;;;;;4994130;28;20030;-74
2023/04/22 08:51:42;;;;;;;3.40;2.53;;;14.50;99.90;;;;;;4972553;28;20019;-75
2023/04/22 08:54:09;;;;;;;3.67;2.28;;;14.60;99.90;;;;;;4998235;28;20034;-74
2023/04/22 08:56:36;;;;;;;3.10;2.17;;;14.60;99.90;;;;;;4992159;28;20085;-74
2023/04/22 08:59:03;;;;;;;2.50;2.03;;;14.60;99.90;;;;;;4992448;28;20117;-74
2023/04/22 09:01:31;;;;;;;5.00;2.10;;;14.70;99.90;;;;;;4992963;28;20119;-75
2023/04/22 09:04:01;;;;;;;3.58;1.98;;;14.80;99.90;;;;;;4993679;28;20037;-75
2023/04/22 09:06:27;;;;;;;4.38;2.03;;;14.90;99.90;;;;;;4992934;28;20105;-74
2023/04/22 09:08:53;;;;;;;2.63;1.83;;;15.00;99.90;;;;;;4993364;28;20416;-74
2023/04/22 09:11:19;;;;;;;2.78;1.75;;;15.10;99.90;;;;;;4983349;28;20424;-74
2023/04/22 09:13:46;;;;;;;3.20;1.83;;;15.20;99.90;;;;;;4993282;28;20278;-75
2023/04/22 09:16:11;;;;;;;3.88;1.65;;;15.30;99.90;;;;;;4992331;28;20057;-74
2023/04/22 09:18:44;;;;;;;2.97;1.83;;;15.40;99.90;;;;;;4991779;28;20030;-74
2023/04/22 09:21:10;;;;;;;2.67;2.00;;;15.40;99.90;;;;;;4992428;28;20026;-74
2023/04/22 09:23:48;;;;;;;3.70;1.95;;;15.40;99.90;;;;;;4992601;28;20562;-74
2023/04/22 09:26:17;;;;;;;1.80;1.55;;;15.20;99.90;;;;;;4993209;28;20483;-75
2023/04/22 09:28:54;;;;;;;3.97;1.90;;;15.20;99.90;;;;;;4991344;28;20621;-75
2023/04/22 09:31:21;;;;;;;3.08;1.88;;;15.10;99.90;;;;;;4992153;28;20149;-76
2023/04/22 09:33:48;;;;;;;2.78;1.70;;;15.10;99.90;;;;;;4991539;28;20443;-75
2023/04/22 09:36:14;;;;;;;2.78;1.50;;;15.10;99.90;;;;;;4993358;28;20050;-75
2023/04/22 09:38:39;;;;;;;2.25;1.67;;;15.10;99.90;;;;;;4992515;28;20463;-75
2023/04/22 09:41:10;;;;;;;2.22;1.70;;;15.10;99.90;;;;;;4992911;28;20064;-75
2023/04/22 09:43:37;;;;;;;3.20;1.70;;;15.20;99.90;;;;;;4992147;28;20038;-75
2023/04/22 09:46:03;;;;;;;3.53;1.70;;;15.20;99.90;;;;;;4992876;28;20030;-74
2023/04/22 09:48:29;;;;;;;2.45;1.75;;;15.20;99.90;;;;;;4990834;28;20038;-75
2023/04/22 09:50:54;;;;;;;1.80;1.67;;;15.20;99.90;;;;;;4992466;28;20026;-75
2023/04/22 09:53:21;;;;;;;2.03;1.50;;;15.30;99.90;;;;;;4990500;28;20109;-74
2023/04/22 09:55:49;;;;;;;3.67;1.75;;;15.40;99.90;;;;;;4991934;28;20026;-75
2023/04/22 09:58:17;;;;;;;4.32;1.92;;;15.50;99.90;;;;;;4990811;28;20057;-74
2023/04/22 10:00:49;;;;;;;2.47;1.73;;;15.50;99.90;;;;;;5006365;28;20022;-75
2023/04/22 10:03:14;;;;;;;3.00;1.70;;;15.60;99.90;;;;;;4992265;28;20057;-75
2023/04/22 10:05:41;;;;;;;2.58;2.00;;;15.80;99.90;;;;;;4990760;28;20065;-75
2023/04/22 10:08:08;;;;;;;4.03;2.40;;;16.00;99.90;;;;;;4992007;28;20034;-75
2023/04/22 10:10:34;;;;;;;13.50;6.93;;;16.10;99.90;;;;;;4985287;28;20042;-74
2023/04/22 10:13:03;;;;;;;3.08;2.55;;;16.40;99.90;;;;;;4984902;28;20488;-75
2023/04/22 10:15:38;;;;;;;2.38;1.50;;;16.70;99.90;;;;;;4991171;28;20084;-75
2023/04/22 10:18:06;;;;;;;2.20;1.75;;;17.10;99.90;;;;;;4990898;28;20031;-74
2023/04/22 10:20:39;;;;;;;2.92;1.67;;;17.10;99.90;;;;;;4991108;28;20031;-74
2023/04/22 10:23:10;;;;;;;2.17;1.58;;;17.00;99.90;;;;;;4994145;28;20469;-75
2023/04/22 10:25:38;;;;;;;2.53;1.35;;;17.10;99.90;;;;;;4993333;28;20499;-75
2023/04/22 10:28:06;;;;;;;1.90;1.58;;;17.20;99.90;;;;;;4995269;28;20092;-75
2023/04/22 10:30:36;;;;;;;4.53;1.80;;;17.40;99.90;;;;;;4993162;28;20041;-75
2023/04/22 10:33:35;;;;;;;5.25;2.10;;;17.50;99.90;;;;;;4994085;28;20037;-74
2023/04/22 10:36:13;;;;;;;2.75;1.60;;;17.60;99.90;;;;;;4962407;28;20498;-75
2023/04/22 10:38:54;;;;;;;2.50;1.80;;;17.70;99.90;;;;;;4993356;28;20023;-75
2023/04/22 10:41:24;;;;;;;2.27;1.53;;;17.90;99.90;;;;;;4985014;28;20046;-74
2023/04/22 10:43:58;;;;;;;1.77;1.35;;;18.00;99.90;;;;;;4993569;28;20030;-75
2023/04/22 10:46:38;;;;;;;3.55;1.30;;;18.10;99.90;;;;;;4956431;28;1054365;-74
2023/04/22 10:49:19;;;;;;;3.95;1.30;;;18.20;99.90;;;;;;4994905;28;20546;-74
2023/04/22 10:51:47;;;;;;;2.97;1.47;;;18.40;99.90;;;;;;4974660;28;20030;-75
2023/04/22 10:54:25;;;;;;;3.13;1.40;;;18.50;99.90;;;;;;4984581;28;20053;-74
2023/04/22 10:57:11;;;;;;;1.75;1.27;;;18.60;98.70;;;;;;4996124;28;20037;-75
2023/04/22 10:59:50;;;;;;;2.40;1.30;;;18.70;97.50;;;;;;4995151;28;20022;-74
2023/04/22 11:02:16;;;;;;;1.98;1.25;;;18.70;95.10;;;;;;4995003;28;20037;-75
2023/04/22 11:04:42;;;;;;;1.63;1.38;;;18.80;94.40;;;;;;4993232;28;20273;-75
2023/04/22 11:07:19;;;;;;;1.67;1.13;;;18.80;95.50;;;;;;4996118;28;20529;-75
2023/04/22 11:09:49;;;;;;;4.88;1.30;;;18.90;95.10;;;;;;4982775;28;20057;-75
2023/04/22 11:12:42;;;;;;;4.72;1.10;;;18.90;93.80;;;;;;4994482;28;20058;-75
2023/04/22 11:15:18;;;;;;;3.33;1.23;;;19.00;92.90;;;;;;4994297;28;20113;-75
2023/04/22 11:17:46;;;;;;;3.72;1.30;;;19.10;90.70;;;;;;4979331;28;20167;-75
2023/04/22 11:20:16;;;;;;;2.65;1.00;;;19.20;91.10;;;;;;4994293;28;20061;-75
2023/04/22 11:22:47;;;;;;;1.52;1.13;;;19.30;90.70;;;;;;4993633;28;20133;-75
2023/04/22 11:25:13;;;;;;;1.90;1.13;;;19.40;90.00;;;;;;4993919;28;20062;-75
2023/04/22 11:27:42;;;;;;;1.75;1.10;;;19.40;90.10;;;;;;4993232;28;20034;-75
2023/04/22 11:30:09;;;;;;;1.25;1.10;;;19.50;89.20;;;;;;4994178;28;20038;-75
2023/04/22 11:32:37;;;;;;;4.07;1.33;;;19.60;89.10;;;;;;4993125;28;20506;-75
2023/04/22 11:35:08;;;;;;;1.63;1.40;;;19.80;88.10;;;;;;4995350;28;20509;-75
2023/04/22 11:37:54;;;;;;;2.65;0.90;;;19.90;83.60;;;;;;4993639;28;20034;-75
2023/04/22 11:40:26;;;;;;;1.80;1.20;;;20.10;84.40;;;;;;4991449;28;20048;-74
2023/04/22 11:42:53;;;;;;;2.20;1.00;;;20.20;77.60;;;;;;4988249;28;20030;-75
2023/04/22 11:45:19;;;;;;;2.85;0.90;;;20.20;81.30;;;;;;4994994;28;20379;-74
2023/04/22 11:47:45;;;;;;;2.38;1.08;;;20.20;78.50;;;;;;4992997;28;20137;-75
2023/04/22 11:50:12;;;;;;;2.35;1.25;;;20.20;78.50;;;;;;4995243;28;20105;-75
2023/04/22 11:52:58;;;;;;;2.97;1.15;;;20.20;80.10;;;;;;4993160;28;20030;-75
2023/04/22 11:55:29;;;;;;;5.45;1.17;;;20.00;79.80;;;;;;5009146;28;20030;-75
2023/04/22 11:57:58;;;;;;;1.80;1.00;;;20.10;80.80;;;;;;4994997;28;20026;-75
2023/04/22 12:00:39;;;;;;;1.42;1.15;;;20.10;79.30;;;;;;4994038;28;20042;-75
2023/04/22 12:03:17;;;;;;;4.55;1.30;;;20.30;79.90;;;;;;4994552;28;20515;-75
2023/04/22 12:06:05;;;;;;;2.00;1.10;;;20.50;79.70;;;;;;4984947;28;20671;-75
2023/04/22 12:08:33;;;;;;;1.58;1.13;;;20.80;80.00;;;;;;4992006;28;20072;-75
2023/04/22 12:11:01;;;;;;;1.33;1.00;;;20.90;76.70;;;;;;4994550;28;20038;-75
2023/04/22 12:13:29;;;;;;;2.33;1.25;;;20.90;78.00;;;;;;4994019;28;20022;-75
2023/04/22 12:15:58;;;;;;;3.40;1.20;;;21.00;76.30;;;;;;4994489;28;20030;-75
2023/04/22 12:18:47;;;;;;;3.03;1.00;;;21.00;75.70;;;;;;4983710;28;21382;-75
2023/04/22 12:21:16;;;;;;;2.03;1.38;;;21.00;75.10;;;;;;4989736;28;20034;-75
2023/04/22 12:23:42;;;;;;;2.47;1.30;;;21.10;76.80;;;;;;4974534;28;20030;-75
2023/04/22 12:26:08;;;;;;;3.00;1.20;;;21.10;76.40;;;;;;4988008;28;20101;-75
2023/04/22 12:28:35;;;;;;;3.60;1.05;;;21.20;75.70;;;;;;4992459;28;20125;-75
2023/04/22 12:31:01;;;;;;;3.53;1.15;;;21.30;73.60;;;;;;4993943;28;20063;-75
2023/04/22 12:33:27;;;;;;;4.85;1.25;;;21.30;73.40;;;;;;4993585;28;20023;-75
2023/04/22 12:35:52;;;;;;;2.65;1.38;;;21.10;72.20;;;;;;4992328;28;20027;-75
2023/04/22 12:38:18;;;;;;;1.92;1.52;;;21.10;71.40;;;;;;4992917;28;20113;-75
2023/04/22 12:40:44;;;;;;;18.60;7.22;;;21.10;70.90;;;;;;4991793;28;20018;-75
2023/04/22 12:43:09;;;;;;;48.63;18.98;;;21.10;71.00;;;;;;4992504;28;20468;-75
2023/04/22 12:45:35;;;;;;;30.50;12.38;;;21.10;70.00;;;;;;4990866;28;20480;-75
2023/04/22 12:48:01;;;;;;;10.43;4.20;;;21.30;70.80;;;;;;4992636;28;20053;-75